Time;durP1;ratioP1;P1;durP2;ratioP2;P2;SDS_P1;SDS_P2;PMS_P1;PMS_P2;Temp;Humidity;BMP_temperature;BMP_pressure;BME280_temperature;BME280_humidity;BME280_pressure;Samples;Min_cycle;Max_cycle;Signal;HPM_P1;HPM_P2
2022/07/14 00:01:16;;;;;;;15.00;2.75;;;13.40;99.90;;;;;;5028454;27;20049;-71
2022/07/14 00:03:41;;;;;;;12.73;2.92;;;13.30;99.90;;;;;;5030123;27;20127;-71
2022/07/14 00:06:07;;;;;;;11.40;3.10;;;13.30;99.90;;;;;;5015342;27;20116;-71
2022/07/14 00:08:33;;;;;;;11.32;2.80;;;13.20;99.90;;;;;;5053015;27;20037;-71
2022/07/14 00:10:59;;;;;;;9.30;2.78;;;13.20;99.90;;;;;;5022951;27;20049;-70
2022/07/14 00:13:24;;;;;;;12.02;3.03;;;13.20;99.90;;;;;;5030373;27;20132;-70
2022/07/14 00:15:50;;;;;;;9.27;2.65;;;13.10;99.90;;;;;;5009059;27;1182063;-71
2022/07/14 00:18:16;;;;;;;12.10;3.67;;;13.10;99.90;;;;;;5052112;27;20045;-71
2022/07/14 00:20:42;;;;;;;11.80;2.67;;;13.10;99.90;;;;;;5033772;27;20513;-71
2022/07/14 00:23:07;;;;;;;7.95;2.70;;;13.10;99.90;;;;;;5048899;27;20045;-71
2022/07/14 00:25:33;;;;;;;7.50;2.15;;;13.10;99.90;;;;;;5032226;27;20053;-71
2022/07/14 00:27:59;;;;;;;10.82;2.63;;;13.10;99.90;;;;;;5016549;27;20541;-71
2022/07/14 00:30:24;;;;;;;9.52;2.72;;;13.00;99.90;;;;;;5022487;27;20516;-71
2022/07/14 00:32:51;;;;;;;8.73;2.70;;;13.00;99.90;;;;;;5034085;27;20041;-70
2022/07/14 00:35:17;;;;;;;9.73;2.20;;;13.00;99.90;;;;;;5016434;27;20407;-71
2022/07/14 00:37:42;;;;;;;7.75;2.30;;;13.00;99.90;;;;;;5034287;27;20425;-71
2022/07/14 00:40:09;;;;;;;9.98;2.20;;;13.00;99.90;;;;;;5033786;27;20492;-70
2022/07/14 00:42:35;;;;;;;10.75;2.30;;;13.00;99.90;;;;;;5050957;27;20620;-70
2022/07/14 00:45:06;;;;;;;9.70;2.60;;;13.00;99.90;;;;;;5017498;27;20044;-72
2022/07/14 00:47:33;;;;;;;8.52;2.40;;;13.00;99.90;;;;;;5032552;27;20044;-70
2022/07/14 00:49:58;;;;;;;10.00;2.33;;;13.00;99.90;;;;;;5032207;27;20057;-70
2022/07/14 00:52:26;;;;;;;10.68;2.45;;;13.00;99.90;;;;;;5054453;27;20080;-70
2022/07/14 00:54:52;;;;;;;11.93;2.65;;;13.00;99.90;;;;;;5033913;27;20586;-70
2022/07/14 00:57:18;;;;;;;10.50;2.75;;;13.30;99.90;;;;;;5052180;27;20123;-71
2022/07/14 00:59:45;;;;;;;9.98;2.88;;;13.10;99.90;;;;;;5064659;27;20040;-71
2022/07/14 01:02:12;;;;;;;8.57;2.58;;;13.10;99.90;;;;;;5017566;27;20038;-71
2022/07/14 01:04:37;;;;;;;9.70;2.72;;;13.10;99.90;;;;;;5048842;27;20056;-71
2022/07/14 01:07:03;;;;;;;10.30;3.28;;;13.10;99.90;;;;;;5050162;27;20041;-71
2022/07/14 01:09:29;;;;;;;13.77;3.13;;;13.10;99.90;;;;;;5034132;27;20133;-70
2022/07/14 01:11:55;;;;;;;8.40;2.78;;;13.10;99.90;;;;;;5014105;27;20052;-71
2022/07/14 01:14:20;;;;;;;12.23;3.42;;;13.00;99.90;;;;;;5033443;27;20048;-71
2022/07/14 01:16:46;;;;;;;13.20;3.05;;;13.00;99.90;;;;;;5014478;27;20445;-71
2022/07/14 01:19:12;;;;;;;11.18;2.85;;;13.00;99.90;;;;;;5027619;27;20386;-71
2022/07/14 01:21:38;;;;;;;14.43;3.47;;;12.90;99.90;;;;;;5055702;27;20045;-71
2022/07/14 01:24:04;;;;;;;7.40;2.78;;;13.00;99.90;;;;;;5023508;28;20041;-71
2022/07/14 01:26:29;;;;;;;10.30;3.28;;;12.90;99.90;;;;;;5031501;27;20468;-71
2022/07/14 01:28:55;;;;;;;9.73;2.70;;;12.90;99.90;;;;;;5033769;27;20131;-70
2022/07/14 01:31:21;;;;;;;8.25;2.78;;;12.90;99.90;;;;;;5051023;27;20768;-71
2022/07/14 01:33:47;;;;;;;8.60;2.30;;;12.70;99.90;;;;;;5048028;27;20128;-71
2022/07/14 01:36:12;;;;;;;13.30;2.55;;;12.80;99.90;;;;;;5033006;27;20045;-72
2022/07/14 01:38:38;;;;;;;7.28;2.47;;;12.70;99.90;;;;;;5050270;27;20351;-71
2022/07/14 01:41:04;;;;;;;9.65;2.33;;;12.60;99.90;;;;;;5033275;27;20049;-71
2022/07/14 01:43:29;;;;;;;7.82;2.58;;;12.60;99.90;;;;;;5017507;27;20041;-70
2022/07/14 01:45:55;;;;;;;14.75;2.42;;;12.60;99.90;;;;;;5034835;27;20044;-71
2022/07/14 01:48:21;;;;;;;11.60;2.30;;;12.50;99.90;;;;;;5035396;27;20782;-71
2022/07/14 01:50:47;;;;;;;8.50;2.17;;;12.50;99.90;;;;;;5034298;27;20047;-71
2022/07/14 01:53:14;;;;;;;12.48;2.28;;;12.40;99.90;;;;;;5033577;27;20071;-71
2022/07/14 01:55:39;;;;;;;8.65;2.60;;;12.40;99.90;;;;;;5032382;27;20043;-70
2022/07/14 01:58:05;;;;;;;11.30;2.65;;;12.40;99.90;;;;;;5031983;27;20044;-70
2022/07/14 02:00:31;;;;;;;8.88;2.75;;;12.30;99.90;;;;;;5015119;27;20131;-70
2022/07/14 02:02:56;;;;;;;10.25;2.40;;;12.20;99.90;;;;;;5063498;27;20675;-71
2022/07/14 02:05:27;;;;;;;9.45;2.35;;;12.20;99.90;;;;;;5032195;28;20036;-71
2022/07/14 02:07:53;;;;;;;10.55;2.50;;;12.10;99.90;;;;;;5023362;28;20045;-71
2022/07/14 02:13:03;;;;;;;12.88;2.78;;;12.20;99.90;;;;;;5041415;28;20045;-71
2022/07/14 02:15:29;;;;;;;7.63;2.58;;;12.10;99.90;;;;;;5024440;27;20064;-70
2022/07/14 02:17:54;;;;;;;10.85;2.45;;;12.00;99.90;;;;;;5021861;28;20489;-71
2022/07/14 02:20:20;;;;;;;9.30;2.30;;;12.00;99.90;;;;;;5023195;28;20112;-71
2022/07/14 02:22:46;;;;;;;11.68;2.72;;;11.90;99.90;;;;;;5004287;28;20124;-71
2022/07/14 02:25:15;;;;;;;12.32;2.88;;;11.90;99.90;;;;;;5022035;28;20402;-71
2022/07/14 02:27:40;;;;;;;9.40;2.20;;;11.90;99.90;;;;;;5021245;28;20163;-70
2022/07/14 02:30:07;;;;;;;8.68;2.50;;;11.80;99.90;;;;;;5022075;28;20136;-71
2022/07/14 02:32:32;;;;;;;10.57;2.97;;;11.80;99.90;;;;;;5021152;28;20085;-71
2022/07/14 02:34:58;;;;;;;7.43;2.20;;;11.80;99.90;;;;;;5007460;28;20042;-71
2022/07/14 02:37:24;;;;;;;8.30;2.10;;;11.90;99.90;;;;;;5004227;28;20132;-70
2022/07/14 02:39:50;;;;;;;8.50;2.22;;;11.70;99.90;;;;;;5022716;28;20153;-70
2022/07/14 02:42:16;;;;;;;9.43;2.05;;;11.70;99.90;;;;;;5024746;28;20084;-71
2022/07/14 02:44:42;;;;;;;8.90;2.45;;;11.60;99.90;;;;;;5021712;28;20077;-71
2022/07/14 02:47:07;;;;;;;7.65;2.05;;;11.60;99.90;;;;;;5022694;28;20049;-71
2022/07/14 02:49:33;;;;;;;8.50;2.42;;;11.60;99.90;;;;;;5022972;28;20061;-71
2022/07/14 02:51:59;;;;;;;9.65;2.65;;;11.50;99.90;;;;;;5022337;28;20094;-70
2022/07/14 02:54:24;;;;;;;9.55;2.20;;;11.50;99.90;;;;;;5025934;28;20135;-71
2022/07/14 02:56:50;;;;;;;10.57;2.50;;;11.50;99.90;;;;;;5091083;28;20037;-70
2022/07/14 02:59:16;;;;;;;12.13;2.58;;;11.50;99.90;;;;;;5024416;28;20038;-71
2022/07/14 03:01:41;;;;;;;8.95;2.17;;;11.40;99.90;;;;;;5003311;28;20399;-71
2022/07/14 03:04:07;;;;;;;10.80;2.35;;;11.40;99.90;;;;;;5020778;28;20107;-71
2022/07/14 03:06:33;;;;;;;7.03;2.15;;;11.30;99.90;;;;;;5021886;28;20045;-71
2022/07/14 03:08:59;;;;;;;9.35;2.42;;;11.30;99.90;;;;;;5010380;27;20048;-71
2022/07/14 03:11:25;;;;;;;12.75;2.50;;;11.30;99.90;;;;;;5029431;27;20055;-70
2022/07/14 03:13:51;;;;;;;11.68;2.38;;;11.30;99.90;;;;;;5016288;27;20506;-70
2022/07/14 03:16:16;;;;;;;8.13;2.60;;;11.30;99.90;;;;;;5032214;27;20045;-70
2022/07/14 03:18:42;;;;;;;9.05;2.40;;;11.30;99.90;;;;;;5034601;27;20875;-70
2022/07/14 03:21:11;;;;;;;10.77;2.80;;;11.20;99.90;;;;;;5030954;27;20271;-71
2022/07/14 03:23:37;;;;;;;9.07;2.33;;;11.20;99.90;;;;;;5044956;27;20053;-70
2022/07/14 03:26:03;;;;;;;10.75;2.25;;;11.20;99.90;;;;;;5030256;27;20456;-71
2022/07/14 03:28:29;;;;;;;9.75;2.33;;;11.10;99.90;;;;;;5028628;27;20120;-70
2022/07/14 03:30:56;;;;;;;10.35;2.92;;;11.10;99.90;;;;;;5026588;27;20456;-70
2022/07/14 03:33:23;;;;;;;6.80;2.13;;;11.10;99.90;;;;;;5020124;28;20045;-70
2022/07/14 03:35:49;;;;;;;7.20;2.33;;;11.10;99.90;;;;;;5031797;27;20060;-69
2022/07/14 03:38:15;;;;;;;9.13;2.50;;;11.10;99.90;;;;;;5032744;27;20440;-71
2022/07/14 03:40:41;;;;;;;7.85;2.50;;;11.10;99.90;;;;;;5039079;27;20051;-71
2022/07/14 03:43:06;;;;;;;10.23;2.88;;;11.10;99.90;;;;;;5016448;28;20050;-70
2022/07/14 03:45:33;;;;;;;10.02;2.75;;;11.10;99.90;;;;;;5025469;27;20063;-71
2022/07/14 03:47:58;;;;;;;9.25;2.80;;;11.10;99.90;;;;;;5027518;28;20057;-70
2022/07/14 03:50:24;;;;;;;8.60;3.00;;;11.10;99.90;;;;;;5034437;28;20077;-71
2022/07/14 03:52:50;;;;;;;9.15;2.85;;;11.10;99.90;;;;;;5026725;28;20128;-72
2022/07/14 03:55:16;;;;;;;11.27;2.95;;;11.10;99.90;;;;;;5025638;27;20044;-71
2022/07/14 03:57:42;;;;;;;7.95;2.55;;;11.10;99.90;;;;;;5017951;28;20045;-71
2022/07/14 04:00:08;;;;;;;8.38;2.83;;;11.10;99.90;;;;;;5021609;28;20054;-71
2022/07/14 04:02:35;;;;;;;9.30;2.90;;;11.00;99.90;;;;;;5022986;28;20048;-72
2022/07/14 04:05:00;;;;;;;11.90;3.00;;;11.00;99.90;;;;;;5006179;28;20049;-71
2022/07/14 04:07:26;;;;;;;7.85;2.20;;;11.00;99.90;;;;;;5023050;28;20522;-71
2022/07/14 04:09:52;;;;;;;10.52;2.85;;;11.00;99.90;;;;;;5015923;27;20482;-71
2022/07/14 04:12:20;;;;;;;8.60;2.53;;;11.10;99.90;;;;;;5040093;27;20402;-71
2022/07/14 04:14:46;;;;;;;8.80;2.72;;;11.10;99.90;;;;;;5035991;27;20053;-72
2022/07/14 04:17:12;;;;;;;9.55;3.22;;;11.10;99.90;;;;;;5053895;27;20449;-71
2022/07/14 04:19:38;;;;;;;7.65;2.38;;;11.30;99.90;;;;;;5009955;28;20053;-72
2022/07/14 04:22:05;;;;;;;7.43;2.38;;;11.20;99.90;;;;;;5021044;28;20094;-72
2022/07/14 04:24:30;;;;;;;8.25;2.63;;;11.30;99.90;;;;;;5022865;28;20390;-72
2022/07/14 04:26:56;;;;;;;8.82;2.70;;;11.30;99.90;;;;;;5024783;27;20072;-71
2022/07/14 04:29:23;;;;;;;7.53;2.50;;;11.40;99.90;;;;;;5024362;27;20449;-72
2022/07/14 04:31:48;;;;;;;11.57;2.40;;;11.40;99.90;;;;;;5023190;28;20045;-72
2022/07/14 04:34:14;;;;;;;10.73;2.40;;;11.50;99.90;;;;;;5022948;28;20471;-71
2022/07/14 04:36:40;;;;;;;6.05;2.25;;;11.60;99.90;;;;;;5021420;27;21012;-71
2022/07/14 04:39:09;;;;;;;6.32;2.17;;;11.70;99.90;;;;;;5023536;28;20769;-72
2022/07/14 04:41:38;;;;;;;9.25;1.77;;;13.00;99.90;;;;;;5025376;28;20052;-71
2022/07/14 04:44:03;;;;;;;4.53;1.90;;;14.60;99.90;;;;;;5009081;28;20097;-71
2022/07/14 04:46:29;;;;;;;7.07;1.45;;;16.00;99.90;;;;;;5026080;28;21170;-75
2022/07/14 04:54:23;;;;;;;6.25;1.70;;;19.50;99.90;;;;;;5023761;27;20037;-76
2022/07/14 04:56:49;;;;;;;7.38;1.73;;;20.40;99.90;;;;;;5021567;28;20060;-75
2022/07/14 04:59:14;;;;;;;5.15;1.30;;;21.20;99.90;;;;;;5006966;28;20905;-75
2022/07/14 05:01:40;;;;;;;6.32;1.40;;;21.40;99.90;;;;;;5020724;27;20405;-75
2022/07/14 05:04:06;;;;;;;5.57;1.60;;;22.30;99.90;;;;;;5039809;27;20521;-75
2022/07/14 05:06:32;;;;;;;5.25;1.33;;;23.00;99.90;;;;;;5020261;27;20060;-75
2022/07/14 05:08:57;;;;;;;7.43;1.20;;;23.40;99.90;;;;;;5020856;27;20052;-75
2022/07/14 05:11:23;;;;;;;5.57;1.75;;;22.40;99.90;;;;;;5023610;28;20048;-75
2022/07/14 05:13:51;;;;;;;12.05;1.60;;;21.80;99.90;;;;;;5010467;27;20057;-76
2022/07/14 05:16:17;;;;;;;5.07;1.20;;;21.50;99.90;;;;;;5023899;27;20052;-75
2022/07/14 05:18:42;;;;;;;3.95;1.63;;;21.30;99.90;;;;;;5040029;27;20048;-75
2022/07/14 05:21:08;;;;;;;5.78;1.30;;;22.10;99.90;;;;;;5038537;27;20120;-75
2022/07/14 05:23:34;;;;;;;4.75;1.27;;;23.00;99.90;;;;;;5026315;27;20076;-75
2022/07/14 05:25:59;;;;;;;8.82;1.60;;;23.80;99.90;;;;;;5041713;27;20092;-75
2022/07/14 05:28:26;;;;;;;5.80;1.30;;;24.60;99.90;;;;;;5025948;27;20040;-75
2022/07/14 05:31:00;;;;;;;3.42;0.98;;;24.10;99.90;;;;;;5040743;27;20069;-75
2022/07/14 05:33:25;;;;;;;6.90;1.25;;;22.90;99.90;;;;;;5050698;27;20037;-75
2022/07/14 05:35:51;;;;;;;5.57;1.15;;;21.80;99.90;;;;;;5022019;27;20438;-75
2022/07/14 05:38:17;;;;;;;6.32;1.30;;;20.90;99.90;;;;;;5010243;28;20048;-76
2022/07/14 05:40:43;;;;;;;8.75;1.70;;;20.20;99.90;;;;;;5024376;27;20886;-76
2022/07/14 05:43:11;;;;;;;4.93;1.65;;;19.60;99.90;;;;;;5025665;27;20076;-75
2022/07/14 05:45:36;;;;;;;6.72;1.08;;;19.10;99.90;;;;;;5006305;28;20505;-76
2022/07/14 05:48:02;;;;;;;5.60;1.10;;;18.60;99.90;;;;;;5009547;28;20044;-76
2022/07/14 05:50:28;;;;;;;3.22;0.90;;;18.20;99.90;;;;;;5007594;28;20457;-76
2022/07/14 05:52:54;;;;;;;9.15;1.10;;;17.90;99.90;;;;;;5005982;28;20045;-76
2022/07/14 05:55:22;;;;;;;5.68;1.30;;;17.70;99.90;;;;;;5025674;27;20052;-76
2022/07/14 05:57:49;;;;;;;3.45;1.10;;;17.40;99.90;;;;;;5039482;27;20048;-76
2022/07/14 06:00:15;;;;;;;4.80;1.00;;;17.20;99.90;;;;;;5030003;27;20463;-76
2022/07/14 06:02:42;;;;;;;5.18;0.93;;;17.00;99.90;;;;;;5039761;27;20153;-77
2022/07/14 06:05:08;;;;;;;8.23;1.30;;;16.90;99.90;;;;;;5038098;28;20041;-76
2022/07/14 06:07:33;;;;;;;5.22;1.15;;;17.20;99.90;;;;;;5019596;28;20041;-75
2022/07/14 06:10:01;;;;;;;5.70;1.33;;;17.10;99.90;;;;;;5003916;28;20048;-76
2022/07/14 06:12:27;;;;;;;3.85;0.60;;;16.90;99.90;;;;;;5037394;27;20048;-76
2022/07/14 06:14:53;;;;;;;3.55;0.88;;;16.80;99.90;;;;;;5007606;28;20060;-76
2022/07/14 06:17:19;;;;;;;5.55;0.95;;;16.60;99.90;;;;;;5022313;28;20037;-75
2022/07/14 06:19:44;;;;;;;4.32;0.80;;;16.60;99.90;;;;;;5040471;27;20591;-75
2022/07/14 06:22:11;;;;;;;3.58;0.63;;;16.40;99.90;;;;;;5021895;28;20049;-76
2022/07/14 06:24:38;;;;;;;3.28;0.80;;;16.40;99.90;;;;;;5039592;27;20443;-75
2022/07/14 06:27:04;;;;;;;4.68;0.65;;;16.40;99.90;;;;;;5006095;27;20033;-75
2022/07/14 06:29:30;;;;;;;2.47;0.70;;;16.40;99.90;;;;;;5053333;27;20057;-75
2022/07/14 06:31:56;;;;;;;4.28;0.65;;;16.40;99.90;;;;;;5011196;28;20040;-75
2022/07/14 06:34:23;;;;;;;4.13;0.50;;;16.50;99.90;;;;;;5022878;28;20753;-76
2022/07/14 06:36:49;;;;;;;10.52;1.02;;;16.70;99.90;;;;;;5022652;28;20041;-76
2022/07/14 06:39:15;;;;;;;4.70;0.90;;;17.30;99.90;;;;;;5018759;28;20049;-75
2022/07/14 06:41:44;;;;;;;4.25;0.50;;;17.20;99.90;;;;;;5043151;27;20397;-76
2022/07/14 06:44:10;;;;;;;2.78;0.63;;;17.10;99.90;;;;;;5034314;27;20045;-77
2022/07/14 06:46:38;;;;;;;4.88;0.77;;;17.00;99.90;;;;;;5042492;27;20081;-75
2022/07/14 06:49:05;;;;;;;3.35;0.50;;;17.00;99.90;;;;;;5006998;28;20084;-76
2022/07/14 06:51:30;;;;;;;6.85;0.88;;;17.00;99.90;;;;;;5027460;28;20555;-75
2022/07/14 06:53:56;;;;;;;3.30;0.70;;;17.00;99.90;;;;;;5023274;28;20045;-76
2022/07/14 06:56:22;;;;;;;2.83;0.60;;;17.00;99.90;;;;;;5025332;27;20049;-75
2022/07/14 06:58:48;;;;;;;4.60;0.50;;;17.10;99.90;;;;;;5055179;28;20077;-76
2022/07/14 07:01:14;;;;;;;2.45;0.77;;;17.10;99.90;;;;;;5011658;27;20045;-76
2022/07/14 07:03:39;;;;;;;4.28;0.57;;;17.20;99.90;;;;;;5040199;28;20037;-75
2022/07/14 07:08:51;;;;;;;1.67;0.43;;;17.30;99.90;;;;;;5040463;28;20049;-76
2022/07/14 07:11:17;;;;;;;4.38;0.70;;;17.50;99.90;;;;;;5056132;28;20702;-76
2022/07/14 07:13:43;;;;;;;1.90;0.50;;;17.60;99.90;;;;;;5014966;28;20411;-76
2022/07/14 07:16:09;;;;;;;6.22;0.88;;;17.70;99.90;;;;;;5025295;27;20061;-75
2022/07/14 07:18:35;;;;;;;4.05;0.70;;;17.80;99.90;;;;;;5031492;27;20467;-76
2022/07/14 07:21:02;;;;;;;3.58;0.77;;;18.00;99.90;;;;;;5014320;28;20088;-76
2022/07/14 07:23:27;;;;;;;2.35;0.45;;;18.20;99.90;;;;;;5059092;27;20041;-75
2022/07/14 07:25:53;;;;;;;1.75;0.60;;;18.30;99.90;;;;;;5026563;27;20052;-75
2022/07/14 07:28:19;;;;;;;4.57;0.90;;;18.30;99.90;;;;;;5009269;28;20075;-75
2022/07/14 07:30:45;;;;;;;0.25;0.20;;;18.30;99.90;;;;;;5010605;27;20040;-75
2022/07/14 07:33:11;;;;;;;5.20;0.88;;;18.90;99.90;;;;;;5009279;27;20045;-74
2022/07/14 07:35:38;;;;;;;3.90;0.60;;;19.90;99.90;;;;;;5029335;28;20041;-75
2022/07/14 07:38:04;;;;;;;5.88;0.70;;;20.10;99.90;;;;;;5004925;28;20149;-75
2022/07/14 07:40:30;;;;;;;2.20;0.40;;;20.20;99.90;;;;;;5022323;27;20561;-75
2022/07/14 07:42:56;;;;;;;1.52;0.30;;;20.30;99.90;;;;;;5006423;27;20060;-76
2022/07/14 07:45:23;;;;;;;1.00;0.20;;;20.30;99.90;;;;;;5033049;27;20041;-75
2022/07/14 07:47:49;;;;;;;6.95;0.50;;;20.40;99.90;;;;;;5006563;27;20044;-75
2022/07/14 07:50:14;;;;;;;3.35;0.77;;;20.60;99.90;;;;;;5025641;27;20045;-75
2022/07/14 07:52:40;;;;;;;3.72;0.80;;;20.90;99.90;;;;;;5022379;27;20041;-74
2022/07/14 07:55:10;;;;;;;3.33;0.50;;;21.30;99.90;;;;;;5025138;27;20045;-74
2022/07/14 07:57:39;;;;;;;3.60;0.50;;;21.60;99.90;;;;;;5008698;28;20094;-75
2022/07/14 08:00:06;;;;;;;2.70;0.52;;;21.80;99.90;;;;;;5054640;27;20048;-74
2022/07/14 08:02:32;;;;;;;2.33;0.40;;;21.80;99.90;;;;;;5045578;27;20041;-74
2022/07/14 08:04:57;;;;;;;2.65;0.50;;;21.80;99.90;;;;;;5058364;28;20370;-75
2022/07/14 08:07:23;;;;;;;6.80;0.77;;;21.90;99.90;;;;;;5023719;27;20041;-74
2022/07/14 08:09:49;;;;;;;3.90;0.50;;;22.00;99.90;;;;;;5028686;27;20450;-74
2022/07/14 08:12:14;;;;;;;6.10;0.55;;;22.30;99.90;;;;;;5022884;28;20598;-75
2022/07/14 08:14:51;;;;;;;2.35;0.30;;;22.30;99.90;;;;;;5019991;28;20094;-74
2022/07/14 08:17:19;;;;;;;1.75;0.63;;;22.30;99.90;;;;;;5039340;27;20053;-75
2022/07/14 08:19:46;;;;;;;3.72;0.98;;;22.40;99.90;;;;;;5027832;27;20057;-75
2022/07/14 08:22:12;;;;;;;2.22;0.68;;;22.40;99.90;;;;;;5005859;27;20051;-74
2022/07/14 08:24:37;;;;;;;1.23;0.30;;;22.20;99.90;;;;;;5033287;27;20710;-75
2022/07/14 08:27:03;;;;;;;2.10;0.30;;;22.00;99.90;;;;;;5030127;27;20409;-74
2022/07/14 08:29:29;;;;;;;0.43;0.20;;;21.90;99.90;;;;;;5027539;28;20116;-74
2022/07/14 08:31:55;;;;;;;0.13;0.10;;;22.00;99.90;;;;;;5013742;28;20493;-74
2022/07/14 08:34:21;;;;;;;1.23;0.45;;;22.00;99.90;;;;;;5027780;27;20172;-74
2022/07/14 08:36:48;;;;;;;1.67;0.52;;;22.10;99.90;;;;;;5012105;28;20325;-75
2022/07/14 08:39:15;;;;;;;0.43;0.20;;;22.10;99.90;;;;;;5033567;27;20052;-75
2022/07/14 08:41:41;;;;;;;4.95;0.60;;;22.20;99.90;;;;;;5027895;27;20053;-74
2022/07/14 08:44:08;;;;;;;3.75;0.60;;;22.20;99.90;;;;;;5046661;27;20054;-74
2022/07/14 08:46:36;;;;;;;3.88;0.65;;;22.40;99.90;;;;;;5032735;27;20040;-75
2022/07/14 08:49:07;;;;;;;5.00;0.63;;;22.30;99.90;;;;;;5062966;27;20041;-74
2022/07/14 08:51:36;;;;;;;1.55;0.38;;;22.20;99.90;;;;;;5031589;27;20033;-74
2022/07/14 08:54:03;;;;;;;3.80;0.50;;;22.10;99.90;;;;;;5028750;27;20049;-74
2022/07/14 08:56:32;;;;;;;1.33;0.40;;;22.00;99.90;;;;;;5027532;27;20068;-75
2022/07/14 08:58:58;;;;;;;2.95;0.55;;;21.90;99.90;;;;;;5047725;27;20033;-75
2022/07/14 09:01:26;;;;;;;2.83;0.63;;;21.90;99.90;;;;;;5029495;27;20064;-73
2022/07/14 09:03:53;;;;;;;2.15;0.43;;;22.00;99.90;;;;;;5017640;27;20620;-73
2022/07/14 09:06:44;;;;;;;3.92;0.40;;;22.30;99.90;;;;;;5052497;27;20404;-74
2022/07/14 09:09:13;;;;;;;3.97;0.30;;;22.60;99.90;;;;;;5031743;27;20041;-74
2022/07/14 09:12:01;;;;;;;1.52;0.50;;;22.60;99.90;;;;;;5029430;27;20057;-75
2022/07/14 09:15:44;;;;;;;3.60;0.50;;;22.80;99.90;;;;;;5029001;27;20768;-74
2022/07/14 09:17:17;;;;;;;1.77;0.30;;;22.80;99.90;;;;;;5031700;27;20060;-74
2022/07/14 09:20:10;;;;;;;1.67;0.40;;;22.70;99.90;;;;;;5014888;27;20122;-74
2022/07/14 09:22:38;;;;;;;4.10;0.50;;;22.50;99.90;;;;;;5038964;27;20330;-74
2022/07/14 09:25:07;;;;;;;1.85;0.47;;;22.30;99.90;;;;;;5053147;27;20076;-74
2022/07/14 09:27:33;;;;;;;7.90;0.93;;;22.40;99.90;;;;;;5050492;27;20048;-74
2022/07/14 09:29:58;;;;;;;4.60;0.68;;;22.50;99.90;;;;;;5032175;27;20040;-74
2022/07/14 09:32:56;;;;;;;4.22;0.70;;;22.80;99.90;;;;;;5031135;27;20055;-74
2022/07/14 09:35:34;;;;;;;4.63;0.85;;;23.10;99.90;;;;;;5046243;27;20384;-75
2022/07/14 09:38:12;;;;;;;5.15;0.90;;;23.50;99.90;;;;;;5010832;28;20044;-75
2022/07/14 09:40:38;;;;;;;4.43;0.65;;;23.70;99.90;;;;;;5008861;28;20052;-75
2022/07/14 09:43:06;;;;;;;3.22;0.80;;;24.00;99.90;;;;;;5026348;28;20049;-75
2022/07/14 09:45:37;;;;;;;3.03;0.60;;;24.00;99.90;;;;;;5023165;28;20053;-75
2022/07/14 09:48:11;;;;;;;5.35;0.80;;;24.20;99.90;;;;;;5022925;28;20049;-74
2022/07/14 09:51:00;;;;;;;4.22;0.75;;;24.30;99.90;;;;;;5023436;27;20059;-76
2022/07/14 09:53:31;;;;;;;4.05;0.60;;;24.40;99.90;;;;;;5039154;27;20127;-75
2022/07/14 09:56:03;;;;;;;5.57;1.50;;;24.20;99.90;;;;;;5047584;27;20508;-76
2022/07/14 09:58:39;;;;;;;2.83;0.70;;;23.90;99.90;;;;;;5047999;27;20035;-75
2022/07/14 10:01:08;;;;;;;4.97;1.67;;;23.70;99.90;;;;;;5016982;28;20302;-76
2022/07/14 10:03:36;;;;;;;3.42;0.85;;;23.50;99.90;;;;;;5017659;28;20708;-75
2022/07/14 10:06:03;;;;;;;4.65;1.33;;;23.30;99.90;;;;;;5027829;28;20045;-76
2022/07/14 10:08:50;;;;;;;3.53;0.60;;;23.30;99.90;;;;;;5020686;27;20056;-74
2022/07/14 10:11:16;;;;;;;5.13;0.70;;;23.20;99.90;;;;;;5039423;27;20072;-75
2022/07/14 10:13:42;;;;;;;4.95;0.80;;;23.10;99.90;;;;;;5027618;28;20045;-75
2022/07/14 10:16:09;;;;;;;3.60;0.75;;;23.00;99.90;;;;;;5037975;27;20336;-75
2022/07/14 10:18:35;;;;;;;3.75;0.65;;;23.20;99.90;;;;;;5036456;27;20167;-75
2022/07/14 10:21:04;;;;;;;2.78;0.60;;;23.20;99.90;;;;;;5039648;27;20042;-75
2022/07/14 10:23:30;;;;;;;1.23;0.40;;;23.20;99.90;;;;;;5042223;27;20053;-76
2022/07/14 10:25:59;;;;;;;3.95;0.80;;;23.10;99.90;;;;;;5054610;27;20045;-76
2022/07/14 10:28:26;;;;;;;3.03;0.63;;;23.10;99.90;;;;;;5007650;27;20067;-75
2022/07/14 10:31:07;;;;;;;3.35;0.80;;;23.00;99.90;;;;;;5034599;28;20445;-76
2022/07/14 10:33:32;;;;;;;;;;;23.00;99.90;;;;;;5036525;27;20389;-75
2022/07/14 10:36:23;;;;;;;3.58;0.90;;;23.10;99.90;;;;;;5053035;27;19979;-75
2022/07/14 10:39:19;;;;;;;6.00;0.80;;;23.30;99.90;;;;;;5035511;27;20037;-75
2022/07/14 10:41:52;;;;;;;7.40;0.80;;;23.20;99.90;;;;;;5037204;28;20136;-76
2022/07/14 10:44:30;;;;;;;5.18;0.85;;;23.10;99.90;;;;;;5042639;27;20076;-74
2022/07/14 10:47:07;;;;;;;2.92;0.80;;;22.90;99.90;;;;;;5022156;27;20037;-75
2022/07/14 10:50:02;;;;;;;4.95;0.90;;;22.60;99.90;;;;;;5016243;28;20047;-75
2022/07/14 10:52:30;;;;;;;7.22;0.80;;;22.40;99.90;;;;;;5039661;28;20652;-76
2022/07/14 10:55:21;;;;;;;5.30;0.90;;;22.00;99.90;;;;;;5034538;27;21737;-76
2022/07/14 10:57:59;;;;;;;;;;;21.80;99.90;;;;;;5040148;27;20532;-75
2022/07/14 11:00:55;;;;;;;3.67;1.00;;;21.60;99.90;;;;;;5024404;27;19970;-76
2022/07/14 11:03:49;;;;;;;6.00;1.10;;;21.50;99.90;;;;;;5044998;27;20049;-75
2022/07/14 11:06:19;;;;;;;6.25;0.80;;;21.60;99.90;;;;;;5008570;28;20053;-76
2022/07/14 11:09:20;;;;;;;3.30;0.90;;;21.50;99.90;;;;;;5029227;27;20041;-75
2022/07/14 11:12:05;;;;;;;;;;;21.50;99.90;;;;;;5023731;28;20051;-75
2022/07/14 11:14:41;;;;;;;4.32;0.70;;;21.40;99.90;;;;;;5047585;27;19941;-75
2022/07/14 11:17:07;;;;;;;4.95;0.77;;;21.40;99.90;;;;;;5023276;27;20048;-74
2022/07/14 11:19:37;;;;;;;5.18;0.85;;;21.50;99.90;;;;;;5045518;27;20053;-74
2022/07/14 11:22:20;;;;;;;4.67;0.80;;;21.60;99.90;;;;;;5027945;27;20432;-75
2022/07/14 11:24:57;;;;;;;3.20;0.68;;;21.70;99.90;;;;;;5030871;27;20059;-75
2022/07/14 11:27:27;;;;;;;1.65;0.32;;;21.80;99.90;;;;;;5028752;27;20148;-74
2022/07/14 11:30:16;;;;;;;2.73;0.40;;;22.20;99.90;;;;;;5036245;27;20049;-75
2022/07/14 11:32:42;;;;;;;2.53;0.30;;;22.60;99.90;;;;;;5037955;28;20059;-76
2022/07/14 11:38:00;;;;;;;4.22;0.43;;;23.60;99.90;;;;;;5028190;27;20498;-75
2022/07/14 11:40:54;;;;;;;3.35;0.75;;;24.20;99.90;;;;;;5005802;27;20394;-75
2022/07/14 11:43:29;;;;;;;1.85;0.40;;;24.20;99.90;;;;;;5005245;27;20114;-75
2022/07/14 11:46:00;;;;;;;0.70;0.43;;;24.20;99.90;;;;;;5036605;27;20059;-75
2022/07/14 11:48:37;;;;;;;1.40;0.40;;;24.10;99.90;;;;;;5037355;27;21598;-76
2022/07/14 11:51:09;;;;;;;1.42;0.50;;;23.90;99.30;;;;;;5045418;27;20049;-74
2022/07/14 11:53:36;;;;;;;2.67;0.70;;;23.80;99.90;;;;;;5053125;27;20049;-75
2022/07/14 11:56:04;;;;;;;2.50;0.40;;;23.70;99.90;;;;;;5049741;27;20072;-74
2022/07/14 11:58:31;;;;;;;1.25;0.60;;;23.60;99.50;;;;;;5064566;27;20113;-74
2022/07/14 12:00:59;;;;;;;4.53;0.40;;;23.50;99.90;;;;;;5022181;27;20374;-74
2022/07/14 12:03:26;;;;;;;2.88;0.50;;;23.50;99.90;;;;;;5046355;27;20123;-74
2022/07/14 12:05:57;;;;;;;1.95;0.68;;;23.50;99.90;;;;;;5038310;27;20360;-75
2022/07/14 12:08:30;;;;;;;1.10;0.20;;;23.60;99.90;;;;;;5040182;27;20106;-75
2022/07/14 12:11:05;;;;;;;0.90;0.57;;;23.60;99.90;;;;;;5039739;27;20045;-75
2022/07/14 12:13:31;;;;;;;2.38;0.50;;;23.70;99.90;;;;;;5047680;27;20049;-75
2022/07/14 12:16:04;;;;;;;6.93;0.47;;;23.90;99.90;;;;;;5066471;27;20585;-75
2022/07/14 12:18:34;;;;;;;1.35;0.50;;;24.20;99.90;;;;;;5014856;27;20446;-76
2022/07/14 12:21:00;;;;;;;0.77;0.50;;;24.40;99.50;;;;;;5007128;28;20521;-76
2022/07/14 12:23:26;;;;;;;2.22;0.70;;;24.40;98.90;;;;;;5033338;27;20053;-77
2022/07/14 12:25:53;;;;;;;6.20;1.10;;;24.20;99.30;;;;;;5050111;27;20126;-77
2022/07/14 12:28:21;;;;;;;6.13;0.80;;;23.90;99.50;;;;;;5006762;28;20490;-76
2022/07/14 12:30:58;;;;;;;3.15;0.60;;;23.60;99.00;;;;;;5052207;27;20607;-76
2022/07/14 12:33:36;;;;;;;4.65;0.50;;;23.20;99.20;;;;;;5019515;28;20052;-75
2022/07/14 12:36:09;;;;;;;4.38;0.52;;;22.90;99.60;;;;;;5029844;27;20080;-75
2022/07/14 12:38:38;;;;;;;3.08;0.68;;;22.90;99.90;;;;;;5033972;27;20052;-76
2022/07/14 12:41:05;;;;;;;1.65;0.45;;;22.80;99.90;;;;;;5026316;27;20502;-76
2022/07/14 12:43:33;;;;;;;1.92;0.43;;;22.60;99.90;;;;;;5046584;27;20162;-76
2022/07/14 12:46:13;;;;;;;4.60;0.57;;;22.40;99.90;;;;;;5032477;27;20581;-76
2022/07/14 12:48:48;;;;;;;2.00;0.80;;;22.10;99.90;;;;;;5040359;27;20044;-75
2022/07/14 12:51:24;;;;;;;3.17;0.50;;;21.90;99.90;;;;;;5062175;27;20391;-76
2022/07/14 12:54:01;;;;;;;1.85;0.40;;;21.80;99.90;;;;;;5042981;27;20439;-76
2022/07/14 12:56:32;;;;;;;2.70;0.40;;;21.60;99.90;;;;;;5048329;27;20383;-74
2022/07/14 12:59:00;;;;;;;0.75;0.32;;;21.50;99.90;;;;;;5022716;27;20136;-76
2022/07/14 13:01:27;;;;;;;2.65;0.40;;;21.50;99.90;;;;;;5058500;27;20128;-76
2022/07/14 13:03:54;;;;;;;1.65;0.30;;;21.50;99.90;;;;;;5043804;27;20231;-75
2022/07/14 13:06:20;;;;;;;2.40;0.50;;;21.60;99.90;;;;;;5018957;27;20041;-75